sensor_id;sensor_type;location;lat;lon;timestamp;pressure;altitude;pressure_sealevel;temperature;humidity
43553;BME280;29153;42.696;23.218;2022-12-07T00:01:25;94461.92;;;4.74;100.00
43553;BME280;29153;42.696;23.218;2022-12-07T00:03:54;94458.42;;;4.69;100.00
43553;BME280;29153;42.696;23.218;2022-12-07T00:06:27;94456.82;;;4.68;100.00
43553;BME280;29153;42.696;23.218;2022-12-07T00:20:42;94442.14;;;5.02;100.00
43553;BME280;29153;42.696;23.218;2022-12-07T00:23:09;94456.80;;;5.01;100.00
43553;BME280;29153;42.696;23.218;2022-12-07T00:25:37;94454.59;;;4.93;100.00
43553;BME280;29153;42.696;23.218;2022-12-07T00:28:04;94456.88;;;4.87;100.00
43553;BME280;29153;42.696;23.218;2022-12-07T00:30:33;94451.77;;;4.80;100.00
43553;BME280;29153;42.696;23.218;2022-12-07T00:33:00;94459.22;;;4.86;100.00
43553;BME280;29153;42.696;23.218;2022-12-07T00:35:28;94462.75;;;4.94;100.00
43553;BME280;29153;42.696;23.218;2022-12-07T00:37:55;94466.45;;;4.95;100.00
43553;BME280;29153;42.696;23.218;2022-12-07T00:40:23;94458.42;;;4.69;100.00
43553;BME280;29153;42.696;23.218;2022-12-07T00:42:51;94449.27;;;4.71;100.00
43553;BME280;29153;42.696;23.218;2022-12-07T00:45:18;94457.13;;;4.71;100.00
43553;BME280;29153;42.696;23.218;2022-12-07T00:47:46;94462.04;;;4.82;100.00
43553;BME280;29153;42.696;23.218;2022-12-07T00:50:13;94465.41;;;4.80;100.00
43553;BME280;29153;42.696;23.218;2022-12-07T00:52:41;94456.70;;;4.77;100.00
43553;BME280;29153;42.696;23.218;2022-12-07T00:55:08;94460.47;;;4.67;100.00
43553;BME280;29153;42.696;23.218;2022-12-07T00:57:36;94456.28;;;4.66;100.00
43553;BME280;29153;42.696;23.218;2022-12-07T01:00:04;94452.66;;;4.69;100.00
43553;BME280;29153;42.696;23.218;2022-12-07T01:02:32;94455.77;;;4.66;100.00
43553;BME280;29153;42.696;23.218;2022-12-07T01:04:59;94464.04;;;4.75;100.00
43553;BME280;29153;42.696;23.218;2022-12-07T01:07:27;94459.16;;;4.67;100.00
43553;BME280;29153;42.696;23.218;2022-12-07T01:09:55;94461.55;;;4.68;100.00
43553;BME280;29153;42.696;23.218;2022-12-07T01:12:22;94454.57;;;4.74;100.00
43553;BME280;29153;42.696;23.218;2022-12-07T01:14:50;94445.50;;;4.65;100.00
43553;BME280;29153;42.696;23.218;2022-12-07T01:17:17;94452.09;;;4.67;100.00
43553;BME280;29153;42.696;23.218;2022-12-07T01:19:45;94444.19;;;4.65;100.00
43553;BME280;29153;42.696;23.218;2022-12-07T01:22:12;94440.48;;;4.63;100.00
43553;BME280;29153;42.696;23.218;2022-12-07T01:24:40;94437.26;;;4.58;100.00
43553;BME280;29153;42.696;23.218;2022-12-07T01:27:07;94442.79;;;4.59;100.00
43553;BME280;29153;42.696;23.218;2022-12-07T01:29:35;94443.08;;;4.61;100.00
43553;BME280;29153;42.696;23.218;2022-12-07T01:32:03;94436.05;;;4.49;100.00
43553;BME280;29153;42.696;23.218;2022-12-07T01:34:30;94433.52;;;4.54;100.00
43553;BME280;29153;42.696;23.218;2022-12-07T01:36:58;94436.45;;;4.58;100.00
43553;BME280;29153;42.696;23.218;2022-12-07T01:39:25;94430.36;;;4.52;100.00
43553;BME280;29153;42.696;23.218;2022-12-07T01:41:53;94434.52;;;4.51;100.00
43553;BME280;29153;42.696;23.218;2022-12-07T01:44:23;94435.42;;;4.42;100.00
43553;BME280;29153;42.696;23.218;2022-12-07T01:46:53;94429.19;;;4.46;100.00
43553;BME280;29153;42.696;23.218;2022-12-07T01:49:37;94432.41;;;4.50;100.00
43553;BME280;29153;42.696;23.218;2022-12-07T01:52:29;94428.19;;;4.49;100.00
43553;BME280;29153;42.696;23.218;2022-12-07T01:55:04;94424.31;;;4.52;100.00
43553;BME280;29153;42.696;23.218;2022-12-07T01:57:28;94416.59;;;4.45;100.00
43553;BME280;29153;42.696;23.218;2022-12-07T01:59:56;94422.37;;;4.45;100.00
43553;BME280;29153;42.696;23.218;2022-12-07T02:02:38;94421.06;;;4.45;100.00
43553;BME280;29153;42.696;23.218;2022-12-07T02:05:02;94423.28;;;4.53;100.00
43553;BME280;29153;42.696;23.218;2022-12-07T02:07:32;94416.67;;;4.50;100.00
43553;BME280;29153;42.696;23.218;2022-12-07T02:10:15;94414.84;;;4.51;100.00
43553;BME280;29153;42.696;23.218;2022-12-07T02:12:44;94423.80;;;4.52;100.00
43553;BME280;29153;42.696;23.218;2022-12-07T02:15:13;94416.22;;;4.53;100.00
43553;BME280;29153;42.696;23.218;2022-12-07T02:17:55;94411.23;;;4.54;100.00
43553;BME280;29153;42.696;23.218;2022-12-07T02:20:29;94414.14;;;4.55;100.00
43553;BME280;29153;42.696;23.218;2022-12-07T02:31:20;94411.88;;;4.45;100.00
43553;BME280;29153;42.696;23.218;2022-12-07T02:33:53;94414.73;;;4.43;100.00
43553;BME280;29153;42.696;23.218;2022-12-07T02:36:28;94407.00;;;4.37;100.00
43553;BME280;29153;42.696;23.218;2022-12-07T02:39:01;94410.67;;;4.19;100.00
43553;BME280;29153;42.696;23.218;2022-12-07T02:41:38;94404.38;;;4.20;100.00
43553;BME280;29153;42.696;23.218;2022-12-07T02:44:07;94409.45;;;4.10;100.00
43553;BME280;29153;42.696;23.218;2022-12-07T02:46:42;94397.31;;;4.06;100.00
43553;BME280;29153;42.696;23.218;2022-12-07T02:49:10;94406.01;;;3.93;100.00
43553;BME280;29153;42.696;23.218;2022-12-07T02:51:45;94404.47;;;3.80;100.00
43553;BME280;29153;42.696;23.218;2022-12-07T02:54:20;94387.38;;;3.78;100.00
43553;BME280;29153;42.696;23.218;2022-12-07T02:56:55;94384.34;;;3.69;100.00
43553;BME280;29153;42.696;23.218;2022-12-07T03:05:18;94378.64;;;3.58;100.00
43553;BME280;29153;42.696;23.218;2022-12-07T03:13:23;94380.91;;;3.40;100.00
43553;BME280;29153;42.696;23.218;2022-12-07T03:18:29;94383.14;;;3.34;100.00
43553;BME280;29153;42.696;23.218;2022-12-07T03:21:01;94385.02;;;3.36;100.00
43553;BME280;29153;42.696;23.218;2022-12-07T03:23:28;94386.44;;;3.41;100.00
43553;BME280;29153;42.696;23.218;2022-12-07T03:26:00;94389.79;;;3.39;100.00
43553;BME280;29153;42.696;23.218;2022-12-07T03:28:31;94386.05;;;3.35;100.00
43553;BME280;29153;42.696;23.218;2022-12-07T03:31:03;94391.24;;;3.33;100.00
43553;BME280;29153;42.696;23.218;2022-12-07T03:33:55;94389.97;;;3.35;100.00
43553;BME280;29153;42.696;23.218;2022-12-07T03:36:30;94386.88;;;3.38;100.00
43553;BME280;29153;42.696;23.218;2022-12-07T03:41:42;94388.55;;;3.30;100.00
43553;BME280;29153;42.696;23.218;2022-12-07T03:44:10;94392.59;;;3.35;100.00
43553;BME280;29153;42.696;23.218;2022-12-07T03:49:28;94389.35;;;3.31;100.00
43553;BME280;29153;42.696;23.218;2022-12-07T03:54:44;94381.09;;;3.36;100.00
43553;BME280;29153;42.696;23.218;2022-12-07T03:57:12;94380.38;;;3.27;100.00
43553;BME280;29153;42.696;23.218;2022-12-07T03:59:40;94377.21;;;3.25;100.00
43553;BME280;29153;42.696;23.218;2022-12-07T04:02:11;94367.06;;;3.28;100.00
43553;BME280;29153;42.696;23.218;2022-12-07T04:04:39;94372.41;;;3.33;100.00
43553;BME280;29153;42.696;23.218;2022-12-07T04:07:07;94376.41;;;3.38;100.00
43553;BME280;29153;42.696;23.218;2022-12-07T04:09:35;94372.73;;;3.37;100.00
43553;BME280;29153;42.696;23.218;2022-12-07T04:12:02;94370.44;;;3.40;100.00
43553;BME280;29153;42.696;23.218;2022-12-07T04:14:30;94370.44;;;3.40;100.00
43553;BME280;29153;42.696;23.218;2022-12-07T04:16:59;94376.48;;;3.41;100.00
43553;BME280;29153;42.696;23.218;2022-12-07T04:19:29;94378.88;;;3.42;100.00
43553;BME280;29153;42.696;23.218;2022-12-07T04:21:58;94378.11;;;3.44;100.00
43553;BME280;29153;42.696;23.218;2022-12-07T04:24:26;94382.36;;;3.48;100.00
43553;BME280;29153;42.696;23.218;2022-12-07T04:26:54;94381.02;;;3.45;100.00
43553;BME280;29153;42.696;23.218;2022-12-07T04:29:22;94388.44;;;3.51;100.00
43553;BME280;29153;42.696;23.218;2022-12-07T04:31:50;94382.00;;;3.42;100.00
43553;BME280;29153;42.696;23.218;2022-12-07T04:34:19;94385.17;;;3.44;100.00
43553;BME280;29153;42.696;23.218;2022-12-07T04:36:47;94382.14;;;3.49;100.00
43553;BME280;29153;42.696;23.218;2022-12-07T04:39:27;94378.11;;;3.44;100.00
43553;BME280;29153;42.696;23.218;2022-12-07T04:41:55;94375.35;;;3.37;100.00
43553;BME280;29153;42.696;23.218;2022-12-07T04:44:24;94383.31;;;3.42;100.00
43553;BME280;29153;42.696;23.218;2022-12-07T04:46:52;94377.02;;;3.43;100.00
43553;BME280;29153;42.696;23.218;2022-12-07T04:49:21;94382.14;;;3.49;100.00
43553;BME280;29153;42.696;23.218;2022-12-07T04:51:49;94380.25;;;3.47;100.00
43553;BME280;29153;42.696;23.218;2022-12-07T04:54:17;94380.83;;;3.49;100.00
43553;BME280;29153;42.696;23.218;2022-12-07T04:56:45;94388.58;;;3.44;100.00
43553;BME280;29153;42.696;23.218;2022-12-07T04:59:13;94390.69;;;3.45;100.00
43553;BME280;29153;42.696;23.218;2022-12-07T05:01:41;94389.23;;;3.51;100.00
43553;BME280;29153;42.696;23.218;2022-12-07T05:04:09;94386.47;;;3.44;100.00
43553;BME280;29153;42.696;23.218;2022-12-07T05:06:37;94383.16;;;3.48;100.00
43553;BME280;29153;42.696;23.218;2022-12-07T05:09:05;94375.67;;;3.40;100.00
43553;BME280;29153;42.696;23.218;2022-12-07T05:11:33;94374.27;;;3.35;100.00
43553;BME280;29153;42.696;23.218;2022-12-07T05:14:15;94384.27;;;3.38;100.00
43553;BME280;29153;42.696;23.218;2022-12-07T05:16:45;94387.53;;;3.31;100.00
43553;BME280;29153;42.696;23.218;2022-12-07T05:19:14;94389.03;;;3.27;100.00
43553;BME280;29153;42.696;23.218;2022-12-07T05:21:41;94382.16;;;3.24;100.00
43553;BME280;29153;42.696;23.218;2022-12-07T05:24:11;94397.64;;;3.25;100.00
43553;BME280;29153;42.696;23.218;2022-12-07T05:26:39;94388.34;;;3.32;100.00
43553;BME280;29153;42.696;23.218;2022-12-07T05:29:09;94389.28;;;3.40;100.00
43553;BME280;29153;42.696;23.218;2022-12-07T05:31:37;94379.97;;;3.32;100.00
43553;BME280;29153;42.696;23.218;2022-12-07T05:34:04;94376.88;;;3.35;100.00
43553;BME280;29153;42.696;23.218;2022-12-07T05:36:32;94381.94;;;3.39;100.00
43553;BME280;29153;42.696;23.218;2022-12-07T05:38:59;94373.42;;;3.32;100.00
43553;BME280;29153;42.696;23.218;2022-12-07T05:41:27;94382.95;;;3.38;100.00
43553;BME280;29153;42.696;23.218;2022-12-07T05:44:13;94376.95;;;3.38;100.00
43553;BME280;29153;42.696;23.218;2022-12-07T05:46:41;94381.71;;;3.41;100.00
43553;BME280;29153;42.696;23.218;2022-12-07T05:49:09;94369.94;;;3.41;100.00
43553;BME280;29153;42.696;23.218;2022-12-07T05:51:36;94366.94;;;3.49;100.00
43553;BME280;29153;42.696;23.218;2022-12-07T05:54:04;94364.55;;;3.33;100.00
43553;BME280;29153;42.696;23.218;2022-12-07T05:56:31;94368.23;;;3.35;100.00
43553;BME280;29153;42.696;23.218;2022-12-07T05:58:59;94364.29;;;3.46;100.00
43553;BME280;29153;42.696;23.218;2022-12-07T06:01:44;94362.50;;;3.49;100.00
43553;BME280;29153;42.696;23.218;2022-12-07T06:04:12;94371.67;;;3.49;100.00
43553;BME280;29153;42.696;23.218;2022-12-07T06:06:39;94366.66;;;3.48;100.00
43553;BME280;29153;42.696;23.218;2022-12-07T06:09:07;94367.13;;;3.45;100.00
43553;BME280;29153;42.696;23.218;2022-12-07T06:11:35;94378.88;;;3.42;100.00
43553;BME280;29153;42.696;23.218;2022-12-07T06:14:20;94381.30;;;3.46;100.00
43553;BME280;29153;42.696;23.218;2022-12-07T06:16:48;94380.17;;;3.56;100.00
43553;BME280;29153;42.696;23.218;2022-12-07T06:19:15;94378.64;;;3.58;100.00
43553;BME280;29153;42.696;23.218;2022-12-07T06:21:43;94381.39;;;3.65;100.00
43553;BME280;29153;42.696;23.218;2022-12-07T06:24:13;94387.47;;;3.68;100.00
43553;BME280;29153;42.696;23.218;2022-12-07T06:26:41;94383.16;;;3.77;100.00
43553;BME280;29153;42.696;23.218;2022-12-07T06:29:08;94382.52;;;3.84;100.00
43553;BME280;29153;42.696;23.218;2022-12-07T06:31:37;94380.25;;;3.90;100.00
43553;BME280;29153;42.696;23.218;2022-12-07T06:34:09;94388.97;;;3.93;100.00
43553;BME280;29153;42.696;23.218;2022-12-07T06:36:37;94386.16;;;3.97;100.00
43553;BME280;29153;42.696;23.218;2022-12-07T06:39:05;94392.52;;;4.01;100.00
43553;BME280;29153;42.696;23.218;2022-12-07T06:41:38;94393.64;;;4.05;100.00
43553;BME280;29153;42.696;23.218;2022-12-07T06:44:06;94398.20;;;4.12;100.00
43553;BME280;29153;42.696;23.218;2022-12-07T06:46:34;94395.67;;;4.17;100.00
43553;BME280;29153;42.696;23.218;2022-12-07T06:49:03;94401.55;;;4.24;100.00
43553;BME280;29153;42.696;23.218;2022-12-07T06:51:31;94398.00;;;4.30;100.00
43553;BME280;29153;42.696;23.218;2022-12-07T06:53:59;94401.95;;;4.33;100.00
43553;BME280;29153;42.696;23.218;2022-12-07T06:56:26;94408.69;;;4.43;100.00
43553;BME280;29153;42.696;23.218;2022-12-07T06:58:55;94400.34;;;4.46;100.00
43553;BME280;29153;42.696;23.218;2022-12-07T07:01:22;94396.72;;;4.49;100.00
43553;BME280;29153;42.696;23.218;2022-12-07T07:03:50;94395.38;;;4.64;100.00
43553;BME280;29153;42.696;23.218;2022-12-07T07:06:18;94404.35;;;4.68;100.00
43553;BME280;29153;42.696;23.218;2022-12-07T07:08:46;94399.58;;;4.81;100.00
43553;BME280;29153;42.696;23.218;2022-12-07T07:11:13;94399.66;;;4.86;100.00
43553;BME280;29153;42.696;23.218;2022-12-07T07:13:41;94402.51;;;4.85;100.00
43553;BME280;29153;42.696;23.218;2022-12-07T07:16:09;94401.84;;;4.92;100.00
43553;BME280;29153;42.696;23.218;2022-12-07T07:18:37;94403.90;;;4.90;100.00
43553;BME280;29153;42.696;23.218;2022-12-07T07:21:06;94399.83;;;4.99;100.00
43553;BME280;29153;42.696;23.218;2022-12-07T07:23:33;94401.14;;;4.99;100.00
43553;BME280;29153;42.696;23.218;2022-12-07T07:26:03;94406.27;;;5.08;100.00
43553;BME280;29153;42.696;23.218;2022-12-07T07:28:30;94413.11;;;5.09;100.00
43553;BME280;29153;42.696;23.218;2022-12-07T07:30:58;94399.13;;;5.06;100.00
43553;BME280;29153;42.696;23.218;2022-12-07T07:33:26;94403.75;;;5.18;100.00
43553;BME280;29153;42.696;23.218;2022-12-07T07:35:53;94408.55;;;5.21;100.00
43553;BME280;29153;42.696;23.218;2022-12-07T07:38:21;94397.27;;;5.23;100.00
43553;BME280;29153;42.696;23.218;2022-12-07T07:40:49;94408.94;;;5.32;100.00
43553;BME280;29153;42.696;23.218;2022-12-07T07:43:16;94406.03;;;5.31;100.00
43553;BME280;29153;42.696;23.218;2022-12-07T07:45:45;94404.08;;;5.43;100.00
43553;BME280;29153;42.696;23.218;2022-12-07T07:48:12;94410.50;;;5.53;100.00
43553;BME280;29153;42.696;23.218;2022-12-07T07:50:40;94410.25;;;5.32;100.00
43553;BME280;29153;42.696;23.218;2022-12-07T07:53:07;94408.95;;;5.35;100.00
43553;BME280;29153;42.696;23.218;2022-12-07T07:55:35;94410.32;;;5.37;100.00
43553;BME280;29153;42.696;23.218;2022-12-07T07:58:03;94403.69;;;5.32;100.00
43553;BME280;29153;42.696;23.218;2022-12-07T08:00:30;94397.98;;;5.38;100.00
43553;BME280;29153;42.696;23.218;2022-12-07T08:02:58;94405.56;;;5.34;100.00
43553;BME280;29153;42.696;23.218;2022-12-07T08:05:25;94405.60;;;5.39;100.00
43553;BME280;29153;42.696;23.218;2022-12-07T08:07:53;94403.75;;;5.37;100.00
43553;BME280;29153;42.696;23.218;2022-12-07T08:10:20;94398.52;;;5.40;100.00
43553;BME280;29153;42.696;23.218;2022-12-07T08:12:48;94395.59;;;5.36;100.00
43553;BME280;29153;42.696;23.218;2022-12-07T08:15:35;94397.72;;;5.39;100.00
43553;BME280;29153;42.696;23.218;2022-12-07T08:18:04;94395.78;;;5.30;100.00
43553;BME280;29153;42.696;23.218;2022-12-07T08:20:32;94398.06;;;5.24;100.00
43553;BME280;29153;42.696;23.218;2022-12-07T08:23:00;94400.47;;;5.28;100.00
43553;BME280;29153;42.696;23.218;2022-12-07T08:25:28;94400.27;;;5.32;100.00
43553;BME280;29153;42.696;23.218;2022-12-07T08:27:56;94393.39;;;5.28;100.00
43553;BME280;29153;42.696;23.218;2022-12-07T08:30:24;94398.44;;;5.32;100.00
43553;BME280;29153;42.696;23.218;2022-12-07T08:32:52;94399.47;;;5.31;100.00
43553;BME280;29153;42.696;23.218;2022-12-07T08:35:19;94396.76;;;5.45;100.00
43553;BME280;29153;42.696;23.218;2022-12-07T08:37:47;94395.88;;;5.59;100.00
43553;BME280;29153;42.696;23.218;2022-12-07T08:40:15;94391.42;;;5.84;100.00
43553;BME280;29153;42.696;23.218;2022-12-07T08:42:48;94392.14;;;5.99;100.00
43553;BME280;29153;42.696;23.218;2022-12-07T08:45:15;94392.09;;;6.20;100.00
43553;BME280;29153;42.696;23.218;2022-12-07T08:47:52;94390.16;;;6.43;100.00
43553;BME280;29153;42.696;23.218;2022-12-07T08:50:20;94387.47;;;6.67;100.00
43553;BME280;29153;42.696;23.218;2022-12-07T08:52:53;94387.53;;;6.77;100.00
43553;BME280;29153;42.696;23.218;2022-12-07T08:55:22;94383.26;;;7.05;98.43
43553;BME280;29153;42.696;23.218;2022-12-07T08:57:50;94378.16;;;6.91;97.17
43553;BME280;29153;42.696;23.218;2022-12-07T09:00:18;94380.38;;;7.09;99.68
43553;BME280;29153;42.696;23.218;2022-12-07T09:02:46;94374.38;;;7.24;98.26
43553;BME280;29153;42.696;23.218;2022-12-07T09:05:13;94368.66;;;7.35;97.85
43553;BME280;29153;42.696;23.218;2022-12-07T09:07:46;94363.75;;;7.01;95.94
43553;BME280;29153;42.696;23.218;2022-12-07T09:10:15;94358.36;;;7.30;96.20
43553;BME280;29153;42.696;23.218;2022-12-07T09:12:43;94360.30;;;7.53;93.37
43553;BME280;29153;42.696;23.218;2022-12-07T09:15:10;94362.14;;;7.55;92.93
43553;BME280;29153;42.696;23.218;2022-12-07T09:17:38;94359.06;;;7.78;93.71
43553;BME280;29153;42.696;23.218;2022-12-07T09:20:06;94355.13;;;7.86;92.14
43553;BME280;29153;42.696;23.218;2022-12-07T09:22:34;94356.21;;;8.02;90.98
43553;BME280;29153;42.696;23.218;2022-12-07T09:25:02;94352.55;;;8.08;91.12
43553;BME280;29153;42.696;23.218;2022-12-07T09:27:31;94349.64;;;8.22;91.49
43553;BME280;29153;42.696;23.218;2022-12-07T09:29:58;94341.72;;;8.07;90.79
43553;BME280;29153;42.696;23.218;2022-12-07T09:32:26;94346.48;;;8.15;90.87
43553;BME280;29153;42.696;23.218;2022-12-07T09:34:53;94339.09;;;8.28;89.96
43553;BME280;29153;42.696;23.218;2022-12-07T09:37:21;94335.42;;;8.39;88.99
43553;BME280;29153;42.696;23.218;2022-12-07T09:39:49;94335.83;;;7.67;89.12
43553;BME280;29153;42.696;23.218;2022-12-07T09:44:59;94329.81;;;7.82;91.24
43553;BME280;29153;42.696;23.218;2022-12-07T09:47:29;94333.25;;;7.90;90.64
43553;BME280;29153;42.696;23.218;2022-12-07T09:50:00;94327.94;;;7.80;90.48
43553;BME280;29153;42.696;23.218;2022-12-07T09:52:28;94327.70;;;7.92;89.33
43553;BME280;29153;42.696;23.218;2022-12-07T09:54:57;94330.89;;;7.91;89.12
43553;BME280;29153;42.696;23.218;2022-12-07T09:57:30;94329.03;;;7.94;89.02
43553;BME280;29153;42.696;23.218;2022-12-07T10:00:03;94325.88;;;7.95;90.30
43553;BME280;29153;42.696;23.218;2022-12-07T10:02:38;94329.34;;;8.20;88.40
43553;BME280;29153;42.696;23.218;2022-12-07T10:05:13;94323.30;;;8.38;88.03
43553;BME280;29153;42.696;23.218;2022-12-07T10:07:41;94318.27;;;8.66;86.65
43553;BME280;29153;42.696;23.218;2022-12-07T10:10:19;94313.50;;;8.76;85.27
43553;BME280;29153;42.696;23.218;2022-12-07T10:13:01;94304.25;;;8.74;86.44
43553;BME280;29153;42.696;23.218;2022-12-07T10:15:47;94304.47;;;9.02;85.94
43553;BME280;29153;42.696;23.218;2022-12-07T10:18:34;94300.70;;;9.24;84.72
43553;BME280;29153;42.696;23.218;2022-12-07T10:21:19;94298.63;;;9.10;83.30
43553;BME280;29153;42.696;23.218;2022-12-07T10:24:05;94288.97;;;9.42;84.70
43553;BME280;29153;42.696;23.218;2022-12-07T10:29:14;94279.45;;;8.72;83.76
43553;BME280;29153;42.696;23.218;2022-12-07T10:31:44;94273.59;;;8.83;84.89
43553;BME280;29153;42.696;23.218;2022-12-07T10:34:23;94271.41;;;9.07;85.06
43553;BME280;29153;42.696;23.218;2022-12-07T10:36:53;94267.11;;;9.24;83.10
43553;BME280;29153;42.696;23.218;2022-12-07T10:39:23;94266.38;;;9.13;82.23
43553;BME280;29153;42.696;23.218;2022-12-07T10:41:59;94263.88;;;9.40;82.55
43553;BME280;29153;42.696;23.218;2022-12-07T10:44:29;94272.19;;;9.13;82.00
43553;BME280;29153;42.696;23.218;2022-12-07T10:47:08;94268.19;;;9.21;82.00
43553;BME280;29153;42.696;23.218;2022-12-07T10:52:48;94259.34;;;9.48;81.30
43553;BME280;29153;42.696;23.218;2022-12-07T10:55:38;94258.50;;;9.55;82.30
43553;BME280;29153;42.696;23.218;2022-12-07T10:58:14;94247.19;;;9.49;80.94
43553;BME280;29153;42.696;23.218;2022-12-07T11:00:55;94249.47;;;9.66;80.16
43553;BME280;29153;42.696;23.218;2022-12-07T11:06:16;94249.25;;;9.57;79.23
43553;BME280;29153;42.696;23.218;2022-12-07T11:11:40;94229.87;;;9.67;79.83
43553;BME280;29153;42.696;23.218;2022-12-07T11:14:34;94229.87;;;9.67;79.83
43553;BME280;29153;42.696;23.218;2022-12-07T11:19:49;94227.75;;;9.69;78.73
43553;BME280;29153;42.696;23.218;2022-12-07T11:22:34;94217.50;;;9.63;78.99
43553;BME280;29153;42.696;23.218;2022-12-07T11:33:40;94200.52;;;10.02;78.70
43553;BME280;29153;42.696;23.218;2022-12-07T11:36:31;94210.38;;;9.94;78.52
43553;BME280;29153;42.696;23.218;2022-12-07T11:41:52;94207.28;;;10.19;77.80
43553;BME280;29153;42.696;23.218;2022-12-07T11:47:05;94204.41;;;10.13;76.28
43553;BME280;29153;42.696;23.218;2022-12-07T11:49:45;94191.69;;;9.81;77.51
43553;BME280;29153;42.696;23.218;2022-12-07T11:52:22;94194.07;;;9.80;77.97
43553;BME280;29153;42.696;23.218;2022-12-07T11:54:51;94191.36;;;9.90;78.07
43553;BME280;29153;42.696;23.218;2022-12-07T11:57:36;94187.21;;;10.10;77.17
43553;BME280;29153;42.696;23.218;2022-12-07T12:00:05;94187.25;;;10.08;77.15
43553;BME280;29153;42.696;23.218;2022-12-07T12:02:43;94183.50;;;10.14;76.24
43553;BME280;29153;42.696;23.218;2022-12-07T12:05:25;94178.13;;;9.92;77.54
43553;BME280;29153;42.696;23.218;2022-12-07T12:10:46;94171.97;;;9.99;76.67
43553;BME280;29153;42.696;23.218;2022-12-07T12:16:18;94175.71;;;9.96;75.11
43553;BME280;29153;42.696;23.218;2022-12-07T12:18:50;94172.34;;;9.88;75.72
43553;BME280;29153;42.696;23.218;2022-12-07T12:21:18;94161.61;;;9.72;77.16
43553;BME280;29153;42.696;23.218;2022-12-07T12:23:50;94159.16;;;9.80;77.34
43553;BME280;29153;42.696;23.218;2022-12-07T12:26:23;94166.45;;;9.93;76.58
43553;BME280;29153;42.696;23.218;2022-12-07T12:28:58;94151.48;;;9.84;77.04
43553;BME280;29153;42.696;23.218;2022-12-07T12:31:33;94150.13;;;9.86;78.24
43553;BME280;29153;42.696;23.218;2022-12-07T12:34:04;94142.69;;;9.88;77.81
43553;BME280;29153;42.696;23.218;2022-12-07T12:36:43;94135.16;;;10.03;77.78
43553;BME280;29153;42.696;23.218;2022-12-07T12:39:14;94133.91;;;9.93;76.83
43553;BME280;29153;42.696;23.218;2022-12-07T12:51:56;94137.05;;;10.29;76.18
43553;BME280;29153;42.696;23.218;2022-12-07T12:54:26;94134.05;;;10.38;75.92
43553;BME280;29153;42.696;23.218;2022-12-07T12:57:30;94136.12;;;10.41;76.11
43553;BME280;29153;42.696;23.218;2022-12-07T13:00:00;94136.52;;;10.29;76.66
43553;BME280;29153;42.696;23.218;2022-12-07T13:02:39;94136.52;;;10.29;76.66
43553;BME280;29153;42.696;23.218;2022-12-07T13:26:35;94127.00;;;9.97;78.99
43553;BME280;29153;42.696;23.218;2022-12-07T13:29:18;94127.55;;;9.96;76.72
43553;BME280;29153;42.696;23.218;2022-12-07T13:31:54;94127.55;;;9.96;76.72
43553;BME280;29153;42.696;23.218;2022-12-07T13:34:39;94121.73;;;9.94;77.75
43553;BME280;29153;42.696;23.218;2022-12-07T13:37:21;94110.18;;;9.85;77.85
43553;BME280;29153;42.696;23.218;2022-12-07T13:39:56;94110.18;;;9.85;77.85
43553;BME280;29153;42.696;23.218;2022-12-07T13:42:31;94111.50;;;9.85;78.17
43553;BME280;29153;42.696;23.218;2022-12-07T13:45:16;94117.39;;;9.77;78.53
43553;BME280;29153;42.696;23.218;2022-12-07T13:47:41;94122.42;;;9.79;78.45
43553;BME280;29153;42.696;23.218;2022-12-07T13:50:29;94120.88;;;9.73;79.33
43553;BME280;29153;42.696;23.218;2022-12-07T13:52:59;94121.39;;;9.75;79.27
43553;BME280;29153;42.696;23.218;2022-12-07T13:55:28;94117.58;;;9.54;79.96
43553;BME280;29153;42.696;23.218;2022-12-07T13:57:56;94120.19;;;9.59;80.01
43553;BME280;29153;42.696;23.218;2022-12-07T14:00:29;94125.70;;;9.63;79.79
43553;BME280;29153;42.696;23.218;2022-12-07T14:03:19;94119.39;;;9.59;79.18
43553;BME280;29153;42.696;23.218;2022-12-07T14:05:35;94116.81;;;9.54;79.07
43553;BME280;29153;42.696;23.218;2022-12-07T14:08:05;94115.48;;;9.51;79.27
43553;BME280;29153;42.696;23.218;2022-12-07T14:10:58;94114.17;;;9.51;79.76
43553;BME280;29153;42.696;23.218;2022-12-07T14:13:32;94112.61;;;9.48;79.59
43553;BME280;29153;42.696;23.218;2022-12-07T14:16:54;94123.78;;;9.40;80.25
43553;BME280;29153;42.696;23.218;2022-12-07T14:18:40;94123.28;;;9.33;80.73
43553;BME280;29153;42.696;23.218;2022-12-07T14:23:42;94128.66;;;9.23;81.04
43553;BME280;29153;42.696;23.218;2022-12-07T14:26:15;94128.70;;;9.12;81.65
43553;BME280;29153;42.696;23.218;2022-12-07T14:28:43;94124.27;;;9.03;82.12
43553;BME280;29153;42.696;23.218;2022-12-07T14:31:21;94126.21;;;8.90;83.06
43553;BME280;29153;42.696;23.218;2022-12-07T14:33:47;94123.10;;;8.75;83.90
43553;BME280;29153;42.696;23.218;2022-12-07T14:36:15;94126.58;;;8.68;83.88
43553;BME280;29153;42.696;23.218;2022-12-07T14:38:43;94120.53;;;8.57;84.37
43553;BME280;29153;42.696;23.218;2022-12-07T14:41:16;94127.44;;;8.43;84.09
43553;BME280;29153;42.696;23.218;2022-12-07T14:44:02;94120.34;;;8.26;84.63
43553;BME280;29153;42.696;23.218;2022-12-07T14:46:29;94120.42;;;7.98;85.35
43553;BME280;29153;42.696;23.218;2022-12-07T14:48:57;94109.89;;;7.86;85.78
43553;BME280;29153;42.696;23.218;2022-12-07T14:51:24;94124.14;;;7.72;86.34
43553;BME280;29153;42.696;23.218;2022-12-07T14:53:52;94130.45;;;7.66;86.21
43553;BME280;29153;42.696;23.218;2022-12-07T14:56:20;94120.19;;;7.42;86.78
43553;BME280;29153;42.696;23.218;2022-12-07T14:58:48;94098.59;;;7.14;87.11
43553;BME280;29153;42.696;23.218;2022-12-07T15:01:15;94127.56;;;7.22;87.09
43553;BME280;29153;42.696;23.218;2022-12-07T15:03:43;94134.64;;;7.04;87.39
43553;BME280;29153;42.696;23.218;2022-12-07T15:06:15;94135.42;;;6.99;87.12